Time;durP1;ratioP1;P1;durP2;ratioP2;P2;SDS_P1;SDS_P2;PMS_P1;PMS_P2;Temp;Humidity;BMP_temperature;BMP_pressure;BME280_temperature;BME280_humidity;BME280_pressure;Samples;Min_cycle;Max_cycle;Signal;HPM_P1;HPM_P2
2022/01/21 00:00:16;;;;;;;3.65;0.90;;;2.60;94.50;;;;;;2083965;28;20068;-87
2022/01/21 00:01:18;;;;;;;4.15;0.93;;;2.60;94.50;;;;;;2096940;28;20490;-88
2022/01/21 00:02:19;;;;;;;3.78;1.00;;;2.60;94.50;;;;;;2096552;28;20036;-87
2022/01/21 00:03:19;;;;;;;3.85;0.82;;;2.60;94.50;;;;;;2090268;28;20044;-87
2022/01/21 00:04:20;;;;;;;1.83;0.60;;;2.60;94.50;;;;;;2090794;28;20029;-88
2022/01/21 00:05:23;;;;;;;4.07;0.85;;;2.60;94.80;;;;;;2089315;28;20542;-88
2022/01/21 00:06:23;;;;;;;5.00;0.80;;;2.60;94.60;;;;;;2095752;28;20036;-88
2022/01/21 00:07:24;;;;;;;4.40;0.93;;;2.60;94.60;;;;;;2097497;28;20508;-87
2022/01/21 00:08:24;;;;;;;3.97;0.70;;;2.60;94.60;;;;;;2082039;28;20487;-87
2022/01/21 00:09:25;;;;;;;2.80;0.70;;;2.60;94.70;;;;;;2084533;28;20060;-87
2022/01/21 00:10:26;;;;;;;4.28;0.80;;;2.60;94.70;;;;;;2085446;28;20479;-87
2022/01/21 00:11:30;;;;;;;3.30;0.90;;;2.50;94.70;;;;;;2089398;28;20037;-88
2022/01/21 00:12:32;;;;;;;3.30;0.68;;;2.50;94.70;;;;;;2088503;28;20040;-87
2022/01/21 00:13:36;;;;;;;3.83;0.85;;;2.50;94.70;;;;;;2090919;28;20469;-88
2022/01/21 00:14:37;;;;;;;2.35;0.65;;;2.50;94.70;;;;;;2096972;28;20033;-88
2022/01/21 00:15:37;;;;;;;5.00;0.70;;;2.50;94.70;;;;;;2083479;28;20404;-88
2022/01/21 00:16:39;;;;;;;3.15;0.60;;;2.50;95.00;;;;;;2083905;28;20490;-88
2022/01/21 00:17:40;;;;;;;5.10;0.77;;;2.50;94.80;;;;;;2087246;28;20139;-87
2022/01/21 00:18:45;;;;;;;4.78;0.90;;;2.50;95.00;;;;;;2098102;28;20040;-88
2022/01/21 00:19:48;;;;;;;2.50;0.60;;;2.40;94.80;;;;;;2092716;28;20029;-87
2022/01/21 00:30:13;;;;;;;5.50;0.70;;;2.30;94.80;;;;;;2102971;28;20040;-88
2022/01/21 00:31:14;;;;;;;3.20;0.70;;;2.30;94.80;;;;;;2089742;28;20096;-87
2022/01/21 00:32:14;;;;;;;2.25;0.70;;;2.30;94.80;;;;;;2082551;28;20779;-87
2022/01/21 00:33:15;;;;;;;3.67;0.70;;;2.30;94.80;;;;;;2089163;28;20149;-87
2022/01/21 00:34:16;;;;;;;3.00;0.63;;;2.30;94.80;;;;;;2089189;28;20140;-87
2022/01/21 00:35:18;;;;;;;3.70;0.60;;;2.30;94.90;;;;;;2088119;28;20029;-88
2022/01/21 00:36:19;;;;;;;3.65;0.60;;;2.30;94.90;;;;;;2089596;28;20048;-88
2022/01/21 00:37:19;;;;;;;5.32;0.60;;;2.30;94.90;;;;;;2084267;28;20071;-88
2022/01/21 00:38:22;;;;;;;2.38;0.50;;;2.30;95.00;;;;;;2085864;28;20475;-87
2022/01/21 00:39:27;;;;;;;3.53;0.88;;;2.20;94.90;;;;;;2087393;28;20096;-87
2022/01/21 00:40:29;;;;;;;3.78;0.75;;;2.30;95.00;;;;;;2083034;28;20522;-88
2022/01/21 00:41:34;;;;;;;4.43;0.70;;;2.20;94.90;;;;;;2080908;28;20041;-88
2022/01/21 00:43:44;;;;;;;3.55;0.60;;;2.20;95.00;;;;;;2104861;28;20153;-87
2022/01/21 00:44:44;;;;;;;3.28;0.60;;;2.20;95.00;;;;;;2093762;28;20053;-87
2022/01/21 00:45:45;;;;;;;2.45;0.60;;;2.20;95.00;;;;;;2093692;28;20064;-88
2022/01/21 00:46:45;;;;;;;3.65;0.98;;;2.20;95.00;;;;;;2093584;28;20463;-88
2022/01/21 00:47:46;;;;;;;3.80;0.73;;;2.20;95.00;;;;;;2078656;28;20427;-88
2022/01/21 00:48:49;;;;;;;4.68;0.80;;;2.20;95.00;;;;;;2089594;28;20087;-87
2022/01/21 00:49:50;;;;;;;4.35;0.70;;;2.20;95.00;;;;;;2095399;28;20636;-87
2022/01/21 00:50:51;;;;;;;3.92;0.60;;;2.20;95.00;;;;;;2089553;28;20029;-87
2022/01/21 00:51:52;;;;;;;4.18;0.70;;;2.20;95.30;;;;;;2089730;28;20071;-87
2022/01/21 00:52:52;;;;;;;3.47;0.80;;;2.20;95.00;;;;;;2101480;28;20028;-88
2022/01/21 00:53:53;;;;;;;2.25;0.70;;;2.20;95.00;;;;;;2095590;28;20036;-87
2022/01/21 00:54:54;;;;;;;3.45;0.55;;;2.20;95.30;;;;;;2078792;28;20081;-87
2022/01/21 00:55:54;;;;;;;2.05;0.68;;;2.30;95.00;;;;;;2089112;28;20180;-88
2022/01/21 00:56:55;;;;;;;4.93;0.68;;;2.20;95.00;;;;;;2088850;28;20075;-87
2022/01/21 00:57:56;;;;;;;5.80;0.80;;;2.30;95.00;;;;;;2080744;28;20038;-87
2022/01/21 00:58:56;;;;;;;2.42;0.60;;;2.20;95.00;;;;;;2081877;28;20041;-88
2022/01/21 00:59:57;;;;;;;2.45;0.50;;;2.30;95.00;;;;;;2090999;28;20041;-87
2022/01/21 01:00:57;;;;;;;3.95;0.63;;;2.30;95.00;;;;;;2105526;28;20599;-87
2022/01/21 01:01:58;;;;;;;3.83;0.70;;;2.20;95.00;;;;;;2097648;28;20139;-87
2022/01/21 01:03:00;;;;;;;8.50;1.00;;;2.20;95.00;;;;;;2107376;28;20090;-88
2022/01/21 01:04:02;;;;;;;2.72;0.73;;;2.20;95.00;;;;;;2090519;28;20045;-88
2022/01/21 01:05:04;;;;;;;5.15;1.10;;;2.20;95.00;;;;;;2098942;28;20119;-88
2022/01/21 01:06:05;;;;;;;3.70;0.65;;;2.20;95.00;;;;;;2098256;28;20052;-87
2022/01/21 01:07:06;;;;;;;4.22;0.68;;;2.20;95.00;;;;;;2102503;28;20127;-87
2022/01/21 01:08:06;;;;;;;3.38;0.70;;;2.20;95.00;;;;;;2097390;28;20040;-88
2022/01/21 01:09:07;;;;;;;2.58;0.77;;;2.20;95.10;;;;;;2089779;28;20033;-87
2022/01/21 01:10:16;;;;;;;6.15;1.05;;;2.10;95.10;;;;;;2089413;28;20041;-87
2022/01/21 01:12:14;;;;;;;3.33;0.73;;;2.20;95.10;;;;;;2097844;28;20054;-87
2022/01/21 01:20:04;;;;;;;3.67;0.90;;;2.10;95.00;;;;;;2092239;28;20086;-87
2022/01/21 01:21:05;;;;;;;3.78;0.77;;;2.10;95.10;;;;;;2096452;28;20791;-87
2022/01/21 01:22:06;;;;;;;3.13;0.80;;;2.10;95.30;;;;;;2098544;28;20041;-87
2022/01/21 01:23:09;;;;;;;3.30;0.57;;;2.10;95.00;;;;;;2095355;28;20461;-87
2022/01/21 01:27:52;;;;;;;2.28;0.65;;;2.20;95.00;;;;;;2094911;28;20123;-87
2022/01/21 01:28:53;;;;;;;3.65;0.95;;;2.20;95.00;;;;;;2083094;28;20076;-87
2022/01/21 01:29:54;;;;;;;4.20;0.68;;;2.20;95.00;;;;;;2080612;28;20167;-87
2022/01/21 01:30:55;;;;;;;3.83;1.15;;;2.20;95.00;;;;;;2091845;28;20056;-88
2022/01/21 01:31:55;;;;;;;4.20;0.90;;;2.30;95.00;;;;;;2099326;28;20036;-87
2022/01/21 01:32:58;;;;;;;5.18;0.82;;;2.30;95.00;;;;;;2098523;28;20051;-87
2022/01/21 01:34:01;;;;;;;3.90;0.60;;;2.30;95.00;;;;;;2090674;28;20037;-87
2022/01/21 01:35:02;;;;;;;2.58;0.65;;;2.30;95.00;;;;;;2103526;28;20141;-87
2022/01/21 01:36:06;;;;;;;3.83;0.80;;;2.30;95.00;;;;;;2100380;28;20029;-88
2022/01/21 01:37:14;;;;;;;5.45;0.90;;;2.40;95.00;;;;;;2089837;28;20053;-87
2022/01/21 01:39:41;;;;;;;4.65;0.70;;;2.30;95.00;;;;;;2080073;28;20045;-87
2022/01/21 01:41:53;;;;;;;1.83;0.52;;;2.30;95.00;;;;;;2098747;28;20045;-87
2022/01/21 01:49:47;;;;;;;3.03;0.65;;;2.20;94.90;;;;;;2090230;28;20037;-88
2022/01/21 01:50:49;;;;;;;3.00;0.70;;;2.20;94.90;;;;;;2088929;28;20025;-88
2022/01/21 01:51:50;;;;;;;3.55;0.65;;;2.20;94.90;;;;;;2098986;28;20122;-87
2022/01/21 01:52:51;;;;;;;3.22;0.93;;;2.30;95.00;;;;;;2088586;28;20044;-87
2022/01/21 01:54:14;;;;;;;3.45;0.75;;;2.20;95.00;;;;;;2090460;28;20515;-87
2022/01/21 01:55:15;;;;;;;3.75;0.80;;;2.30;95.00;;;;;;2092339;28;20033;-87
2022/01/21 01:56:18;;;;;;;3.28;0.75;;;2.30;95.00;;;;;;2097692;28;20508;-87
2022/01/21 01:57:19;;;;;;;6.30;0.80;;;2.30;95.00;;;;;;2099107;28;20513;-87
2022/01/21 01:58:19;;;;;;;3.83;0.90;;;2.30;95.00;;;;;;2099178;28;20057;-87
2022/01/21 01:59:20;;;;;;;4.72;0.63;;;2.30;95.00;;;;;;2089364;28;20045;-87
2022/01/21 02:00:21;;;;;;;2.75;0.57;;;2.30;95.00;;;;;;2090371;28;20462;-88
2022/01/21 02:01:22;;;;;;;3.03;0.77;;;2.30;95.00;;;;;;2096104;28;20143;-87
2022/01/21 02:02:23;;;;;;;4.25;0.80;;;2.30;95.00;;;;;;2093971;28;20035;-87
2022/01/21 02:03:24;;;;;;;3.70;0.80;;;2.30;95.00;;;;;;2106994;28;20285;-88
2022/01/21 02:04:25;;;;;;;4.28;1.02;;;2.30;95.00;;;;;;2106758;28;20137;-87
2022/01/21 02:05:26;;;;;;;5.80;0.80;;;2.30;95.00;;;;;;2096466;28;20430;-87
2022/01/21 02:06:26;;;;;;;3.45;0.70;;;2.30;95.00;;;;;;2096170;28;20033;-88
2022/01/21 02:07:27;;;;;;;5.13;0.80;;;2.30;95.00;;;;;;2099887;28;20045;-88
2022/01/21 02:08:29;;;;;;;5.22;0.80;;;2.30;94.90;;;;;;2095665;28;20049;-87
2022/01/21 02:09:30;;;;;;;5.53;1.05;;;2.30;94.90;;;;;;2080460;28;20030;-86
2022/01/21 02:10:31;;;;;;;3.10;0.80;;;2.30;94.90;;;;;;2089303;28;20398;-87
2022/01/21 02:11:31;;;;;;;5.38;0.90;;;2.40;95.00;;;;;;2096423;28;20041;-87
2022/01/21 02:12:32;;;;;;;2.88;0.60;;;2.40;95.20;;;;;;2098739;28;20071;-88
2022/01/21 02:13:39;;;;;;;3.78;0.73;;;2.30;94.90;;;;;;2097473;28;20106;-88
2022/01/21 02:14:48;;;;;;;4.95;0.70;;;2.40;95.00;;;;;;2081942;28;20080;-88
2022/01/21 02:16:10;;;;;;;3.22;0.63;;;2.40;94.90;;;;;;2090681;28;20037;-88
2022/01/21 02:22:16;;;;;;;2.80;0.60;;;2.30;94.90;;;;;;2098148;28;20102;-87
2022/01/21 02:23:17;;;;;;;2.63;0.73;;;2.40;94.90;;;;;;2097029;28;20033;-87
2022/01/21 02:24:24;;;;;;;5.38;0.90;;;2.30;94.90;;;;;;2087754;28;20510;-87
2022/01/21 02:25:24;;;;;;;4.22;0.90;;;2.30;94.90;;;;;;2085064;28;20034;-87
2022/01/21 02:26:25;;;;;;;6.15;0.90;;;2.30;94.90;;;;;;2083103;28;20419;-87
2022/01/21 02:27:27;;;;;;;5.28;1.10;;;2.30;94.90;;;;;;2086123;28;20053;-86
2022/01/21 02:28:27;;;;;;;5.13;1.13;;;2.30;94.90;;;;;;2088701;28;20039;-88
2022/01/21 02:29:43;;;;;;;4.82;1.00;;;2.30;95.00;;;;;;2082218;28;20151;-87
2022/01/21 02:30:57;;;;;;;7.03;0.90;;;2.20;95.00;;;;;;2090691;28;20045;-87
2022/01/21 02:32:00;;;;;;;4.95;0.80;;;2.30;95.00;;;;;;2095572;28;20036;-87
2022/01/21 02:33:01;;;;;;;3.45;0.80;;;2.20;95.00;;;;;;2097727;28;20036;-87
2022/01/21 02:34:04;;;;;;;5.53;1.02;;;2.20;95.00;;;;;;2087375;28;20045;-87
2022/01/21 02:35:05;;;;;;;3.90;0.80;;;2.20;95.00;;;;;;2077989;28;20482;-87
2022/01/21 02:36:05;;;;;;;3.08;0.80;;;2.20;95.00;;;;;;2081319;28;20045;-87
2022/01/21 02:37:07;;;;;;;5.40;0.98;;;2.20;95.00;;;;;;2088224;28;20041;-88
2022/01/21 02:38:07;;;;;;;2.58;0.70;;;2.10;95.00;;;;;;2098975;28;20479;-87
2022/01/21 02:39:08;;;;;;;5.85;1.17;;;2.10;95.00;;;;;;2089479;28;20053;-88
2022/01/21 02:40:10;;;;;;;4.80;0.77;;;2.10;95.30;;;;;;2088287;28;20044;-87
2022/01/21 02:41:11;;;;;;;3.42;0.98;;;2.10;95.10;;;;;;2088476;28;20072;-87
2022/01/21 02:42:12;;;;;;;3.67;0.90;;;2.10;95.10;;;;;;2088862;28;20037;-87
2022/01/21 02:43:14;;;;;;;4.65;0.90;;;2.10;95.10;;;;;;2093783;28;20475;-87
2022/01/21 02:44:17;;;;;;;7.18;1.15;;;2.10;95.10;;;;;;2091523;28;20585;-87
2022/01/21 02:45:18;;;;;;;5.22;1.00;;;2.10;95.10;;;;;;2091815;28;20448;-87
2022/01/21 02:46:22;;;;;;;4.50;1.02;;;2.10;95.10;;;;;;2083049;28;20041;-87
2022/01/21 02:47:22;;;;;;;3.45;0.93;;;2.00;95.10;;;;;;2092657;28;20124;-88
2022/01/21 02:48:24;;;;;;;5.50;0.80;;;2.10;95.10;;;;;;2089554;28;20037;-87
2022/01/21 02:49:25;;;;;;;4.55;0.75;;;2.00;95.10;;;;;;2081687;28;20041;-88
2022/01/21 02:50:26;;;;;;;3.55;0.80;;;2.00;95.10;;;;;;2098127;28;20037;-88
2022/01/21 02:51:26;;;;;;;5.35;0.90;;;2.00;95.10;;;;;;2094646;28;20045;-87
2022/01/21 02:52:30;;;;;;;4.43;1.00;;;2.00;95.10;;;;;;2078479;28;20049;-87
2022/01/21 02:54:48;;;;;;;3.95;0.90;;;2.00;95.10;;;;;;2090429;28;20115;-87
2022/01/21 02:55:48;;;;;;;4.70;0.60;;;2.00;95.10;;;;;;2073476;28;20057;-86
2022/01/21 02:56:49;;;;;;;2.22;0.80;;;2.00;95.10;;;;;;2080546;28;20091;-87
2022/01/21 02:57:50;;;;;;;2.53;0.68;;;1.90;95.40;;;;;;2076945;28;20303;-87
2022/01/21 02:58:51;;;;;;;4.88;0.80;;;1.90;95.10;;;;;;2081512;28;20042;-87
2022/01/21 02:59:51;;;;;;;3.00;0.80;;;1.90;95.10;;;;;;2081104;28;20069;-87
2022/01/21 03:00:52;;;;;;;4.50;0.90;;;2.00;95.20;;;;;;2083755;28;20090;-87
2022/01/21 03:01:53;;;;;;;3.80;0.82;;;1.90;95.20;;;;;;2076382;28;20045;-87
2022/01/21 03:02:54;;;;;;;3.90;0.70;;;1.90;95.20;;;;;;2078655;28;20040;-87
2022/01/21 03:03:54;;;;;;;3.53;0.90;;;1.90;95.20;;;;;;2085910;28;20136;-87
2022/01/21 03:05:03;;;;;;;5.15;1.00;;;1.90;95.20;;;;;;2087970;28;20033;-87
2022/01/21 03:06:04;;;;;;;2.90;0.65;;;1.90;95.20;;;;;;2080942;28;20067;-87
2022/01/21 03:07:05;;;;;;;5.15;0.80;;;1.90;95.20;;;;;;2082010;28;20535;-87
2022/01/21 03:08:07;;;;;;;4.57;1.05;;;1.90;95.20;;;;;;2093947;28;20368;-86
2022/01/21 03:09:08;;;;;;;2.15;0.70;;;1.90;95.20;;;;;;2083782;28;20041;-87
2022/01/21 03:10:09;;;;;;;3.35;0.90;;;1.90;95.20;;;;;;2095580;28;20045;-87
2022/01/21 03:11:12;;;;;;;3.95;1.02;;;1.90;95.20;;;;;;2085167;28;20442;-87
2022/01/21 03:12:12;;;;;;;3.97;0.70;;;1.90;95.20;;;;;;2089266;28;20488;-87
2022/01/21 03:13:14;;;;;;;3.17;0.73;;;1.90;95.20;;;;;;2097047;28;20033;-87
2022/01/21 03:14:15;;;;;;;3.50;0.75;;;1.90;95.20;;;;;;2090041;28;20503;-87
2022/01/21 03:15:16;;;;;;;4.00;0.63;;;1.90;95.30;;;;;;2090337;28;20107;-87
2022/01/21 03:16:17;;;;;;;2.55;0.60;;;1.90;95.30;;;;;;2097922;28;20422;-87
2022/01/21 03:17:18;;;;;;;4.97;0.93;;;1.80;95.30;;;;;;2099225;28;20576;-87
2022/01/21 03:18:19;;;;;;;3.85;0.70;;;1.90;95.30;;;;;;2084246;28;20030;-87
2022/01/21 03:19:20;;;;;;;3.33;0.70;;;1.80;95.30;;;;;;2079302;28;20040;-87
2022/01/21 03:20:20;;;;;;;3.75;0.68;;;1.80;95.30;;;;;;2074925;28;20116;-87
2022/01/21 03:21:21;;;;;;;3.53;0.60;;;1.80;95.30;;;;;;2082219;28;20037;-86
2022/01/21 03:22:22;;;;;;;6.18;0.80;;;1.80;95.30;;;;;;2091147;28;20111;-87
2022/01/21 03:23:25;;;;;;;4.22;0.70;;;1.80;95.30;;;;;;2098069;28;20489;-87
2022/01/21 03:24:25;;;;;;;4.78;0.80;;;1.80;95.30;;;;;;2088068;28;20056;-87
2022/01/21 03:25:26;;;;;;;3.22;0.75;;;1.80;95.30;;;;;;2081532;28;20046;-87
2022/01/21 03:26:27;;;;;;;2.65;0.68;;;1.80;95.30;;;;;;2087361;28;20163;-87
2022/01/21 03:27:28;;;;;;;4.90;1.08;;;1.80;95.30;;;;;;2081482;28;20142;-87
2022/01/21 03:28:29;;;;;;;3.38;0.70;;;1.80;95.30;;;;;;2084051;28;20400;-87
2022/01/21 03:29:29;;;;;;;4.18;0.93;;;1.80;95.30;;;;;;2076921;28;20125;-87
2022/01/21 03:30:30;;;;;;;3.05;0.60;;;1.80;95.30;;;;;;2073249;28;20036;-87
2022/01/21 03:31:31;;;;;;;2.75;0.75;;;1.70;95.30;;;;;;2090862;28;20033;-86
2022/01/21 03:32:32;;;;;;;3.30;0.70;;;1.80;95.30;;;;;;2094534;28;20024;-87
2022/01/21 03:33:33;;;;;;;3.35;0.52;;;1.70;95.30;;;;;;2097487;28;20519;-86
2022/01/21 03:34:33;;;;;;;2.47;0.65;;;1.70;95.30;;;;;;2097209;28;20079;-87
2022/01/21 03:35:34;;;;;;;4.20;0.80;;;1.70;95.30;;;;;;2089243;28;20116;-87
2022/01/21 03:36:35;;;;;;;1.45;0.55;;;1.70;95.30;;;;;;2102582;28;20047;-87
2022/01/21 03:37:36;;;;;;;2.97;0.70;;;1.70;95.30;;;;;;2100261;28;20082;-87
2022/01/21 03:38:38;;;;;;;4.10;0.73;;;1.70;95.30;;;;;;2089511;28;20502;-87
2022/01/21 03:39:38;;;;;;;2.72;0.75;;;1.70;95.30;;;;;;2089476;28;20125;-87
2022/01/21 03:40:39;;;;;;;2.15;0.47;;;1.70;95.30;;;;;;2097715;28;20383;-87
2022/01/21 03:41:40;;;;;;;2.97;0.63;;;1.70;95.30;;;;;;2101870;28;20044;-87
2022/01/21 03:42:40;;;;;;;3.05;0.65;;;1.70;95.30;;;;;;2101234;28;20059;-87
2022/01/21 03:43:41;;;;;;;2.55;0.68;;;1.70;95.60;;;;;;2081104;28;20135;-87
2022/01/21 03:44:41;;;;;;;3.45;1.00;;;1.70;95.40;;;;;;2085401;28;20072;-87
2022/01/21 03:45:42;;;;;;;2.40;0.50;;;1.60;95.30;;;;;;2083544;28;20068;-87
2022/01/21 03:46:43;;;;;;;5.03;0.60;;;1.70;95.40;;;;;;2087470;28;20140;-87
2022/01/21 03:47:44;;;;;;;2.45;0.60;;;1.60;95.40;;;;;;2092238;28;20077;-86
2022/01/21 03:48:48;;;;;;;4.07;0.80;;;1.70;95.40;;;;;;2090134;28;20045;-87
2022/01/21 03:49:55;;;;;;;2.00;0.65;;;1.60;95.40;;;;;;2089281;28;20602;-87
2022/01/21 03:50:56;;;;;;;2.65;0.68;;;1.60;95.40;;;;;;2089759;28;20060;-86
2022/01/21 03:51:56;;;;;;;2.28;0.65;;;1.60;95.40;;;;;;2084643;28;20045;-87
2022/01/21 03:52:58;;;;;;;3.80;0.63;;;1.60;95.40;;;;;;2085589;28;20069;-87
2022/01/21 03:53:59;;;;;;;3.83;0.70;;;1.60;95.40;;;;;;2091019;28;20037;-87
2022/01/21 03:54:59;;;;;;;4.00;0.90;;;1.60;95.40;;;;;;2093245;28;20119;-87
2022/01/21 03:56:01;;;;;;;3.00;0.70;;;1.60;95.40;;;;;;2087594;28;20114;-87
2022/01/21 03:57:03;;;;;;;4.03;0.90;;;1.60;95.50;;;;;;2076945;28;20100;-87
2022/01/21 03:58:05;;;;;;;3.25;1.27;;;1.50;95.40;;;;;;2084940;28;20082;-87
2022/01/21 03:59:07;;;;;;;2.40;0.52;;;1.50;95.50;;;;;;2098312;28;20639;-87
2022/01/21 04:00:11;;;;;;;3.53;0.85;;;1.50;95.50;;;;;;2088570;28;20182;-87
2022/01/21 04:01:12;;;;;;;2.97;0.75;;;1.50;95.50;;;;;;2089332;28;20055;-87
2022/01/21 04:02:12;;;;;;;1.63;0.50;;;1.50;95.50;;;;;;2091690;28;20041;-87
2022/01/21 04:03:14;;;;;;;3.42;0.85;;;1.50;95.70;;;;;;2096132;28;20537;-86
2022/01/21 04:04:14;;;;;;;5.45;0.82;;;1.50;95.50;;;;;;2087407;28;20128;-87
2022/01/21 04:05:15;;;;;;;3.08;0.60;;;1.50;95.50;;;;;;2089604;28;20406;-87
2022/01/21 04:06:16;;;;;;;3.30;0.80;;;1.50;95.50;;;;;;2098193;28;20028;-87
2022/01/21 04:07:16;;;;;;;3.10;0.70;;;1.40;95.40;;;;;;2088064;28;20399;-87
2022/01/21 04:08:17;;;;;;;2.55;0.60;;;1.40;95.50;;;;;;2089241;28;20509;-87
2022/01/21 04:09:17;;;;;;;3.17;0.73;;;1.40;95.50;;;;;;2091788;28;20044;-87
2022/01/21 04:10:18;;;;;;;2.45;0.50;;;1.40;95.50;;;;;;2095534;28;20040;-87
2022/01/21 04:11:19;;;;;;;4.93;0.80;;;1.40;95.50;;;;;;2087720;28;20037;-87
2022/01/21 04:12:20;;;;;;;4.32;0.75;;;1.40;95.50;;;;;;2079320;28;20045;-87
2022/01/21 04:13:22;;;;;;;3.45;0.68;;;1.40;95.50;;;;;;2080995;28;20041;-86
2022/01/21 04:14:23;;;;;;;2.35;0.50;;;1.40;95.50;;;;;;2090696;28;20044;-87
2022/01/21 04:15:24;;;;;;;3.22;0.60;;;1.40;95.50;;;;;;2089961;28;20033;-87
2022/01/21 04:16:25;;;;;;;4.07;0.60;;;1.40;95.50;;;;;;2096693;28;20051;-87
2022/01/21 04:17:26;;;;;;;2.88;0.60;;;1.40;95.50;;;;;;2085753;28;20045;-87
2022/01/21 04:18:28;;;;;;;1.75;0.55;;;1.40;95.50;;;;;;2072855;28;20491;-87
2022/01/21 04:19:28;;;;;;;3.80;0.70;;;1.40;95.50;;;;;;2082290;28;20047;-87
2022/01/21 04:20:29;;;;;;;2.55;0.70;;;1.40;95.50;;;;;;2094835;28;20040;-87
2022/01/21 04:21:29;;;;;;;4.97;0.93;;;1.40;95.50;;;;;;2096325;28;20037;-87
2022/01/21 04:22:30;;;;;;;4.13;0.80;;;1.40;95.60;;;;;;2096595;28;20068;-87
2022/01/21 04:23:31;;;;;;;3.80;0.70;;;1.40;95.50;;;;;;2080076;28;20052;-87
2022/01/21 04:24:32;;;;;;;5.15;0.95;;;1.40;95.50;;;;;;2072814;28;20048;-87
2022/01/21 04:25:32;;;;;;;3.30;0.60;;;1.40;95.80;;;;;;2091930;28;20060;-87
2022/01/21 04:26:33;;;;;;;2.88;0.70;;;1.40;95.50;;;;;;2097616;28;20575;-87
2022/01/21 04:27:33;;;;;;;3.08;0.80;;;1.40;95.50;;;;;;2097743;28;20434;-87
2022/01/21 04:28:34;;;;;;;5.32;0.80;;;1.40;95.50;;;;;;2096061;28;20426;-87
2022/01/21 04:29:35;;;;;;;4.95;0.90;;;1.40;95.50;;;;;;2089534;28;20040;-87
2022/01/21 04:30:36;;;;;;;3.58;0.75;;;1.50;95.50;;;;;;2094028;28;20040;-88
2022/01/21 04:31:36;;;;;;;3.55;0.77;;;1.50;95.50;;;;;;2087267;28;20079;-87
2022/01/21 04:32:37;;;;;;;3.30;0.70;;;1.50;95.50;;;;;;2088306;28;20491;-87
2022/01/21 04:33:38;;;;;;;3.58;0.75;;;1.50;95.50;;;;;;2097282;28;20037;-87
2022/01/21 04:34:38;;;;;;;5.50;1.08;;;1.50;95.50;;;;;;2095122;28;20462;-87
2022/01/21 04:35:39;;;;;;;6.25;1.08;;;1.50;95.50;;;;;;2081426;28;20128;-87
2022/01/21 04:36:40;;;;;;;4.35;0.65;;;1.50;95.40;;;;;;2097042;28;20483;-87
2022/01/21 04:37:48;;;;;;;5.18;0.95;;;1.50;95.40;;;;;;2103110;28;20533;-87
2022/01/21 04:38:52;;;;;;;6.10;1.05;;;1.50;95.40;;;;;;2091220;28;20040;-87
2022/01/21 04:40:08;;;;;;;3.17;0.63;;;1.50;95.40;;;;;;2080669;28;20132;-86
2022/01/21 04:47:18;;;;;;;4.68;0.73;;;1.50;95.40;;;;;;2095312;28;21966;-87
2022/01/21 04:48:19;;;;;;;5.38;0.90;;;1.50;95.40;;;;;;2097191;28;20425;-87
2022/01/21 04:49:19;;;;;;;4.82;0.70;;;1.50;95.40;;;;;;2100734;28;20131;-87
2022/01/21 04:50:20;;;;;;;4.38;0.75;;;1.50;95.40;;;;;;2082664;28;20049;-87
2022/01/21 04:51:27;;;;;;;2.75;0.60;;;1.50;95.40;;;;;;2081031;28;20593;-87
2022/01/21 04:52:28;;;;;;;3.22;0.52;;;1.50;95.40;;;;;;2093687;28;20064;-87
2022/01/21 04:53:30;;;;;;;2.70;0.70;;;1.50;95.40;;;;;;2093172;28;20033;-88
2022/01/21 04:54:35;;;;;;;4.80;0.90;;;1.50;95.40;;;;;;2095587;28;20036;-87
2022/01/21 04:55:36;;;;;;;2.15;0.55;;;1.50;95.40;;;;;;2086555;28;20029;-87
2022/01/21 04:56:36;;;;;;;1.80;0.60;;;1.50;95.40;;;;;;2087430;28;20485;-87
2022/01/21 04:57:37;;;;;;;3.00;0.40;;;1.50;95.40;;;;;;2088187;28;20506;-87
2022/01/21 04:58:38;;;;;;;2.90;0.57;;;1.50;95.40;;;;;;2087730;28;20037;-87
2022/01/21 04:59:40;;;;;;;4.97;0.85;;;1.50;95.40;;;;;;2103463;28;20123;-87
2022/01/21 05:00:41;;;;;;;4.88;0.90;;;1.50;95.40;;;;;;2097586;28;20499;-87
2022/01/21 05:01:41;;;;;;;3.72;0.55;;;1.50;95.40;;;;;;2093698;28;20085;-87
2022/01/21 05:02:42;;;;;;;3.92;0.68;;;1.50;95.40;;;;;;2096244;28;20048;-87
2022/01/21 05:03:45;;;;;;;3.13;0.65;;;1.50;95.40;;;;;;2085983;28;20419;-87
2022/01/21 05:04:46;;;;;;;3.15;0.70;;;1.50;95.40;;;;;;2081233;28;20145;-87
2022/01/21 05:05:47;;;;;;;3.97;0.90;;;1.50;95.40;;;;;;2088617;28;20495;-88
2022/01/21 05:06:50;;;;;;;2.92;0.52;;;1.50;95.40;;;;;;2088016;28;20029;-87
2022/01/21 05:07:51;;;;;;;2.35;0.60;;;1.50;95.40;;;;;;2089138;28;20068;-87
2022/01/21 05:08:53;;;;;;;3.65;0.90;;;1.50;95.40;;;;;;2086794;28;20045;-87
2022/01/21 05:09:54;;;;;;;4.75;0.77;;;1.50;95.40;;;;;;2086591;28;20037;-87
2022/01/21 05:10:55;;;;;;;4.60;0.80;;;1.50;95.40;;;;;;2088551;28;20045;-87
2022/01/21 05:11:56;;;;;;;3.42;0.65;;;1.50;95.40;;;;;;2088668;28;20048;-87
2022/01/21 05:12:57;;;;;;;3.47;0.65;;;1.50;95.40;;;;;;2087663;28;20037;-86
2022/01/21 05:14:09;;;;;;;2.38;0.57;;;1.50;95.40;;;;;;2088703;28;20087;-87
2022/01/21 05:16:46;;;;;;;2.70;0.57;;;1.50;95.40;;;;;;2078923;28;20045;-87
2022/01/21 05:17:49;;;;;;;3.92;0.60;;;1.50;95.40;;;;;;2079363;28;20076;-87
2022/01/21 05:18:50;;;;;;;3.75;0.70;;;1.50;95.40;;;;;;2078386;28;20046;-87
2022/01/21 05:19:51;;;;;;;3.00;0.75;;;1.50;95.40;;;;;;2076589;28;20515;-87
2022/01/21 05:20:52;;;;;;;3.65;0.73;;;1.50;95.40;;;;;;2085610;28;20041;-87
2022/01/21 05:21:52;;;;;;;4.40;0.68;;;1.40;95.40;;;;;;2096948;28;20044;-87
2022/01/21 05:22:53;;;;;;;1.77;0.60;;;1.40;95.40;;;;;;2096988;28;20033;-87
2022/01/21 05:23:54;;;;;;;3.85;0.50;;;1.50;95.50;;;;;;2095548;28;20048;-87
2022/01/21 05:24:54;;;;;;;2.60;0.93;;;1.40;95.50;;;;;;2078189;28;20479;-87
2022/01/21 05:25:55;;;;;;;3.53;0.77;;;1.50;95.50;;;;;;2088381;28;20037;-87
2022/01/21 05:27:01;;;;;;;3.67;0.60;;;1.50;95.50;;;;;;2084863;28;20033;-87
2022/01/21 05:28:01;;;;;;;3.13;0.60;;;1.50;95.50;;;;;;2088648;28;20438;-90
2022/01/21 05:29:03;;;;;;;3.47;0.70;;;1.50;95.50;;;;;;2091337;28;20044;-88
2022/01/21 05:30:05;;;;;;;2.70;0.73;;;1.50;95.50;;;;;;2080821;28;20037;-86
2022/01/21 05:31:05;;;;;;;3.03;0.73;;;1.40;95.50;;;;;;2071625;28;20140;-88
2022/01/21 05:32:07;;;;;;;3.60;0.75;;;1.40;95.50;;;;;;2080412;28;20080;-87
2022/01/21 05:33:08;;;;;;;3.72;0.70;;;1.50;95.50;;;;;;2097218;28;20509;-87
2022/01/21 05:34:08;;;;;;;3.45;0.60;;;1.50;95.50;;;;;;2087933;28;20164;-88
2022/01/21 05:35:10;;;;;;;3.38;0.60;;;1.40;95.50;;;;;;2089149;28;20041;-87
2022/01/21 05:36:10;;;;;;;4.05;0.80;;;1.50;95.50;;;;;;2094488;28;20045;-87
2022/01/21 05:37:11;;;;;;;2.70;0.65;;;1.50;95.50;;;;;;2097796;28;20043;-88
2022/01/21 05:38:12;;;;;;;1.83;0.50;;;1.50;95.50;;;;;;2096848;28;20040;-87
2022/01/21 05:39:14;;;;;;;2.05;0.65;;;1.50;95.50;;;;;;2089540;28;20447;-87
2022/01/21 05:40:16;;;;;;;2.85;1.23;;;1.50;95.50;;;;;;2087939;28;20076;-87
2022/01/21 05:41:19;;;;;;;2.75;0.70;;;1.50;95.50;;;;;;2095759;28;20032;-86
2022/01/21 05:42:20;;;;;;;3.40;0.68;;;1.50;95.50;;;;;;2091278;28;20048;-87
2022/01/21 05:43:21;;;;;;;2.15;0.52;;;1.50;95.50;;;;;;2101232;28;20033;-87
2022/01/21 05:46:55;;;;;;;1.35;0.30;;;1.50;95.50;;;;;;2089816;28;20051;-87
2022/01/21 05:47:55;;;;;;;4.13;0.50;;;1.50;95.50;;;;;;2082937;28;20076;-87
2022/01/21 05:48:56;;;;;;;1.58;0.50;;;1.50;95.50;;;;;;2083811;28;20041;-87
2022/01/21 05:49:57;;;;;;;1.98;0.45;;;1.50;95.50;;;;;;2103772;28;20039;-88
2022/01/21 05:50:58;;;;;;;3.00;0.63;;;1.50;95.50;;;;;;2091292;28;20037;-87
2022/01/21 05:52:19;;;;;;;2.58;0.60;;;1.50;95.50;;;;;;2096171;28;20033;-87
2022/01/21 05:53:22;;;;;;;2.15;0.60;;;1.50;95.50;;;;;;2100683;28;20040;-88
2022/01/21 05:54:25;;;;;;;1.90;0.50;;;1.50;95.50;;;;;;2089326;28;20033;-87
2022/01/21 05:55:26;;;;;;;2.28;0.40;;;1.50;95.50;;;;;;2087155;28;20385;-87
2022/01/21 05:56:27;;;;;;;4.60;0.50;;;1.50;95.50;;;;;;2091057;28;20036;-86
2022/01/21 05:57:30;;;;;;;3.25;0.60;;;1.50;95.50;;;;;;2086006;28;20033;-86
2022/01/21 05:58:30;;;;;;;1.80;0.45;;;1.50;95.50;;;;;;2074754;28;20495;-87
2022/01/21 05:59:32;;;;;;;3.65;0.73;;;1.50;95.50;;;;;;2080323;28;20029;-87
2022/01/21 06:00:32;;;;;;;4.72;0.80;;;1.50;95.50;;;;;;2084514;28;20030;-86
2022/01/21 06:01:34;;;;;;;2.90;0.40;;;1.50;95.50;;;;;;2088863;28;20087;-84
2022/01/21 06:02:36;;;;;;;3.53;0.55;;;1.50;95.50;;;;;;2085837;28;20021;-85
2022/01/21 06:03:36;;;;;;;3.17;0.70;;;1.50;95.50;;;;;;2086810;28;20044;-85
2022/01/21 06:04:39;;;;;;;2.33;0.50;;;1.50;95.50;;;;;;2089286;28;20021;-85
2022/01/21 06:05:40;;;;;;;2.30;0.68;;;1.50;95.50;;;;;;2092612;28;20029;-86
2022/01/21 06:06:40;;;;;;;2.78;0.50;;;1.50;95.50;;;;;;2094527;28;20128;-86
2022/01/21 06:07:42;;;;;;;3.88;0.60;;;1.50;95.50;;;;;;2078227;28;20052;-84
2022/01/21 06:08:42;;;;;;;3.83;0.52;;;1.50;95.50;;;;;;2073487;28;20034;-86
2022/01/21 06:09:43;;;;;;;3.30;0.60;;;1.50;95.50;;;;;;2087427;28;20422;-86
2022/01/21 06:10:44;;;;;;;2.60;0.55;;;1.50;95.50;;;;;;2089870;28;20112;-86
2022/01/21 06:11:44;;;;;;;3.88;0.50;;;1.60;95.50;;;;;;2089924;28;20041;-86
2022/01/21 06:12:45;;;;;;;3.92;0.70;;;1.50;95.50;;;;;;2089191;28;20135;-86
2022/01/21 06:13:46;;;;;;;1.73;0.47;;;1.50;95.50;;;;;;2097856;28;20056;-86